Time;durP1;ratioP1;P1;durP2;ratioP2;P2;SDS_P1;SDS_P2;PMS_P1;PMS_P2;Temp;Humidity;BMP_temperature;BMP_pressure;BME280_temperature;BME280_humidity;BME280_pressure;Samples;Min_cycle;Max_cycle;Signal;HPM_P1;HPM_P2
2023/08/18 00:00:11;;;;;;;9.63;8.88;;;19.10;99.90;;;;;;5034793;28;20053;-81
2023/08/18 00:02:37;;;;;;;9.93;9.00;;;19.10;99.90;;;;;;5034835;28;20045;-81
2023/08/18 00:05:03;;;;;;;10.05;9.02;;;19.10;99.90;;;;;;5034450;28;20275;-81
2023/08/18 00:07:29;;;;;;;8.75;7.82;;;19.10;99.90;;;;;;5034488;28;20465;-81
2023/08/18 00:09:54;;;;;;;9.68;8.73;;;19.00;99.90;;;;;;5034531;28;20021;-81
2023/08/18 00:12:20;;;;;;;9.52;8.65;;;19.10;99.90;;;;;;5033921;28;20076;-81
2023/08/18 00:14:45;;;;;;;9.02;8.32;;;19.00;99.90;;;;;;5034361;28;20022;-81
2023/08/18 00:17:11;;;;;;;9.38;8.57;;;19.00;99.90;;;;;;5034482;28;20465;-82
2023/08/18 00:19:37;;;;;;;9.63;8.73;;;19.10;99.90;;;;;;5033462;28;20063;-81
2023/08/18 00:22:02;;;;;;;9.43;8.50;;;19.10;99.90;;;;;;5033188;28;20064;-82
2023/08/18 00:24:28;;;;;;;9.68;8.98;;;19.10;99.90;;;;;;5034270;28;20034;-81
2023/08/18 00:26:53;;;;;;;9.70;8.90;;;19.10;99.90;;;;;;5033441;28;20034;-81
2023/08/18 00:29:19;;;;;;;9.40;8.60;;;19.00;99.90;;;;;;5034181;28;20044;-81
2023/08/18 00:31:45;;;;;;;8.95;8.25;;;19.10;99.90;;;;;;5033654;28;20128;-81
2023/08/18 00:34:11;;;;;;;9.80;8.38;;;19.10;99.90;;;;;;5033516;28;20022;-81
2023/08/18 00:36:36;;;;;;;8.63;8.02;;;19.10;99.90;;;;;;5033686;28;20104;-80
2023/08/18 00:39:02;;;;;;;9.43;8.52;;;19.60;99.90;;;;;;5033460;28;20485;-81
2023/08/18 00:41:28;;;;;;;10.43;9.52;;;19.10;99.90;;;;;;5034310;28;20029;-81
2023/08/18 00:43:54;;;;;;;9.18;8.27;;;19.00;99.90;;;;;;5033758;28;20029;-81
2023/08/18 00:46:21;;;;;;;9.65;8.73;;;19.10;99.90;;;;;;5033226;28;20520;-81
2023/08/18 00:48:47;;;;;;;9.23;8.43;;;19.30;99.90;;;;;;5033395;28;20044;-81
2023/08/18 00:51:13;;;;;;;8.40;7.80;;;19.20;99.90;;;;;;5033695;28;20491;-81
2023/08/18 00:53:43;;;;;;;9.60;8.80;;;19.00;99.90;;;;;;5032756;28;20041;-81
2023/08/18 00:56:09;;;;;;;7.72;7.13;;;19.00;99.90;;;;;;5033872;28;20048;-81
2023/08/18 00:58:38;;;;;;;9.73;7.88;;;19.00;99.90;;;;;;5033553;28;20121;-81
2023/08/18 01:01:04;;;;;;;8.07;7.43;;;19.70;99.90;;;;;;5032887;28;20026;-81
2023/08/18 01:03:30;;;;;;;9.13;8.32;;;19.00;99.90;;;;;;5033432;28;20529;-81
2023/08/18 01:05:56;;;;;;;8.93;8.13;;;19.10;99.90;;;;;;5033716;28;20029;-81
2023/08/18 01:08:22;;;;;;;8.68;7.97;;;19.10;99.90;;;;;;5032990;28;20036;-81
2023/08/18 01:11:34;;;;;;;9.25;8.32;;;19.00;99.90;;;;;;5033361;28;20022;-81
2023/08/18 01:14:26;;;;;;;9.20;8.35;;;19.00;99.90;;;;;;4953085;29;20068;-81
2023/08/18 01:16:59;;;;;;;9.45;8.65;;;19.00;99.90;;;;;;5033159;28;20029;-81
2023/08/18 01:19:24;;;;;;;8.77;8.07;;;18.90;99.90;;;;;;5033412;28;20033;-81
2023/08/18 01:21:55;;;;;;;8.63;8.02;;;19.00;99.90;;;;;;5032395;28;20029;-81
2023/08/18 01:24:26;;;;;;;8.82;8.13;;;19.00;99.90;;;;;;5033281;28;20420;-81
2023/08/18 01:26:52;;;;;;;8.70;8.00;;;18.90;99.90;;;;;;5032914;28;20084;-81
2023/08/18 01:29:22;;;;;;;10.23;9.13;;;19.20;99.90;;;;;;5032567;28;20033;-81
2023/08/18 01:31:53;;;;;;;8.15;7.43;;;18.90;99.90;;;;;;5032595;28;20144;-81
2023/08/18 01:34:23;;;;;;;8.55;7.85;;;18.90;99.90;;;;;;5032968;28;20033;-81
2023/08/18 01:36:51;;;;;;;9.27;8.45;;;18.90;99.90;;;;;;5031984;28;20025;-81
2023/08/18 01:39:19;;;;;;;8.65;8.05;;;19.00;99.90;;;;;;5032930;28;20025;-81
2023/08/18 01:41:46;;;;;;;8.15;7.40;;;19.00;99.90;;;;;;5032744;28;20036;-81
2023/08/18 01:44:16;;;;;;;8.68;7.88;;;19.00;99.90;;;;;;5031996;28;20029;-81
2023/08/18 01:46:41;;;;;;;9.85;8.98;;;19.00;99.90;;;;;;5032591;28;20044;-81
2023/08/18 01:49:07;;;;;;;7.90;7.32;;;19.00;99.90;;;;;;5032740;28;20052;-81
2023/08/18 01:51:33;;;;;;;8.77;7.85;;;18.80;99.90;;;;;;5031696;28;20022;-81
2023/08/18 01:53:58;;;;;;;8.70;8.00;;;19.10;99.90;;;;;;5032530;28;20029;-81
2023/08/18 01:56:24;;;;;;;8.70;7.80;;;19.10;99.90;;;;;;5032088;28;20025;-81
2023/08/18 01:58:49;;;;;;;9.43;8.63;;;19.00;99.90;;;;;;5032507;28;20048;-81
2023/08/18 02:01:15;;;;;;;9.65;8.85;;;19.20;99.90;;;;;;5033079;28;20537;-81
2023/08/18 02:03:40;;;;;;;9.68;8.77;;;19.70;99.90;;;;;;5031923;28;20033;-81
2023/08/18 02:06:06;;;;;;;10.00;9.10;;;19.00;99.90;;;;;;5032459;28;20070;-81
2023/08/18 02:08:31;;;;;;;9.18;8.48;;;18.90;99.90;;;;;;5032284;28;20179;-81
2023/08/18 02:11:02;;;;;;;8.32;7.63;;;18.90;99.90;;;;;;5031635;28;20040;-81
2023/08/18 02:13:28;;;;;;;9.18;8.27;;;18.80;99.90;;;;;;5032272;28;20433;-83
2023/08/18 02:15:53;;;;;;;10.15;9.10;;;18.60;99.90;;;;;;5031975;28;20029;-83
2023/08/18 02:18:19;;;;;;;8.18;7.57;;;18.60;99.90;;;;;;5031665;28;20025;-83
2023/08/18 02:20:44;;;;;;;9.25;8.43;;;18.70;99.90;;;;;;5031794;28;20073;-82
2023/08/18 02:23:10;;;;;;;9.57;8.68;;;18.70;99.90;;;;;;5032321;28;20102;-82
2023/08/18 02:25:35;;;;;;;9.27;8.57;;;18.60;99.90;;;;;;5031351;28;20488;-82
2023/08/18 02:28:01;;;;;;;9.38;8.63;;;18.60;99.90;;;;;;5031837;28;20106;-82
2023/08/18 02:30:26;;;;;;;10.43;8.93;;;18.60;99.90;;;;;;5032117;28;20042;-82
2023/08/18 02:32:52;;;;;;;9.52;8.60;;;18.50;99.90;;;;;;5030961;28;20513;-82
2023/08/18 02:35:18;;;;;;;9.60;8.70;;;18.50;99.90;;;;;;5031948;28;20021;-82
2023/08/18 02:37:43;;;;;;;9.70;8.80;;;18.50;99.90;;;;;;5031543;28;20021;-81
2023/08/18 02:40:09;;;;;;;10.02;9.13;;;18.50;99.90;;;;;;5031352;28;20030;-82
2023/08/18 02:42:35;;;;;;;9.77;8.80;;;18.50;99.90;;;;;;5031706;28;20105;-82
2023/08/18 02:45:01;;;;;;;9.82;9.13;;;18.50;99.90;;;;;;5031290;28;20045;-81
2023/08/18 02:47:27;;;;;;;10.25;9.35;;;18.50;99.90;;;;;;5030968;28;20472;-82
2023/08/18 02:49:53;;;;;;;10.27;9.38;;;18.80;99.90;;;;;;5031357;28;20082;-82
2023/08/18 02:52:18;;;;;;;10.45;9.45;;;18.50;99.90;;;;;;5032045;28;20021;-82
2023/08/18 02:54:44;;;;;;;10.60;9.60;;;18.50;99.90;;;;;;5030716;28;20037;-81
2023/08/18 02:57:10;;;;;;;9.40;8.70;;;18.40;99.90;;;;;;5031841;28;20035;-82
2023/08/18 02:59:35;;;;;;;12.13;9.20;;;19.00;99.90;;;;;;5031546;28;20381;-82
2023/08/18 03:02:01;;;;;;;11.15;9.95;;;18.40;99.90;;;;;;5031004;28;20033;-82
2023/08/18 03:04:26;;;;;;;11.23;10.32;;;18.40;99.90;;;;;;5033676;28;20029;-81
2023/08/18 03:06:52;;;;;;;11.48;10.30;;;18.40;99.90;;;;;;5030789;28;20032;-81
2023/08/18 03:09:18;;;;;;;10.25;9.40;;;19.20;99.90;;;;;;5031803;28;20045;-82
2023/08/18 03:11:43;;;;;;;10.70;9.70;;;18.40;99.90;;;;;;5031275;28;20350;-82
2023/08/18 03:14:09;;;;;;;11.05;9.95;;;18.40;99.90;;;;;;5030853;28;20346;-81
2023/08/18 03:16:34;;;;;;;10.98;10.02;;;18.40;99.90;;;;;;5031434;28;20025;-81
2023/08/18 03:19:00;;;;;;;12.88;10.23;;;18.50;99.90;;;;;;5031265;28;20029;-81
2023/08/18 03:21:25;;;;;;;13.48;10.85;;;19.50;99.90;;;;;;5030793;28;20017;-81
2023/08/18 03:23:51;;;;;;;11.00;10.05;;;18.40;99.90;;;;;;5031251;28;20034;-81
2023/08/18 03:26:17;;;;;;;10.50;9.70;;;18.40;99.90;;;;;;5031691;28;20022;-81
2023/08/18 03:28:42;;;;;;;10.07;9.18;;;18.40;99.90;;;;;;5030483;28;20099;-81
2023/08/18 03:31:08;;;;;;;10.30;9.27;;;18.40;99.90;;;;;;5031257;28;20421;-81
2023/08/18 03:33:34;;;;;;;11.75;10.52;;;18.50;99.90;;;;;;5031064;28;20056;-81
2023/08/18 03:36:00;;;;;;;10.57;9.70;;;18.40;99.90;;;;;;5030599;28;20037;-81
2023/08/18 03:38:26;;;;;;;11.18;10.13;;;19.10;99.90;;;;;;5031564;28;20029;-81
2023/08/18 03:41:18;;;;;;;9.30;8.50;;;18.50;99.90;;;;;;5031040;28;20030;-82
2023/08/18 03:43:43;;;;;;;10.15;9.25;;;18.60;99.90;;;;;;5026338;28;20029;-81
2023/08/18 03:46:22;;;;;;;10.10;9.10;;;18.60;99.90;;;;;;5031206;28;20079;-81
2023/08/18 03:48:48;;;;;;;11.02;9.50;;;18.40;99.90;;;;;;5031005;28;20072;-81
2023/08/18 03:51:14;;;;;;;9.60;8.75;;;18.40;99.90;;;;;;5030592;28;20021;-81
2023/08/18 03:53:40;;;;;;;10.13;9.25;;;18.30;99.90;;;;;;5030894;28;20026;-81
2023/08/18 03:56:06;;;;;;;11.88;8.70;;;18.30;99.90;;;;;;5030581;28;20029;-81
2023/08/18 03:58:31;;;;;;;8.77;8.07;;;18.40;99.90;;;;;;5034724;28;20029;-81
2023/08/18 04:01:01;;;;;;;8.55;7.95;;;18.20;99.90;;;;;;5034660;28;20584;-81
2023/08/18 04:03:27;;;;;;;9.52;8.48;;;18.30;99.90;;;;;;5034382;28;20048;-81
2023/08/18 04:05:52;;;;;;;8.80;7.93;;;18.20;99.90;;;;;;5034358;28;20469;-81
2023/08/18 04:08:18;;;;;;;8.55;7.78;;;18.20;99.90;;;;;;5034711;28;20469;-81
2023/08/18 04:10:43;;;;;;;9.55;8.50;;;18.10;99.90;;;;;;5034073;28;20465;-81
2023/08/18 04:13:09;;;;;;;9.15;8.32;;;18.30;99.90;;;;;;5034487;28;20060;-81
2023/08/18 04:15:34;;;;;;;8.68;7.88;;;18.20;99.90;;;;;;5034247;28;20021;-81
2023/08/18 04:18:00;;;;;;;8.85;8.13;;;19.10;99.90;;;;;;5033769;28;20032;-81
2023/08/18 04:20:25;;;;;;;9.20;8.27;;;18.20;99.90;;;;;;5034604;28;20034;-81
2023/08/18 04:22:51;;;;;;;9.00;8.07;;;18.30;99.90;;;;;;5034102;28;20044;-81
2023/08/18 04:25:16;;;;;;;8.82;8.13;;;18.20;99.90;;;;;;5033995;28;20025;-81
2023/08/18 04:27:42;;;;;;;9.15;8.32;;;18.20;99.90;;;;;;5033784;28;20032;-81
2023/08/18 04:30:09;;;;;;;10.65;8.07;;;18.10;99.90;;;;;;5034300;28;20050;-81
2023/08/18 04:32:36;;;;;;;9.00;8.20;;;18.10;99.90;;;;;;5033168;28;20370;-81
2023/08/18 04:35:01;;;;;;;10.43;7.85;;;18.10;99.90;;;;;;5034247;28;20113;-81
2023/08/18 04:37:27;;;;;;;8.23;7.47;;;18.10;99.90;;;;;;5034144;28;20022;-81
2023/08/18 04:39:52;;;;;;;8.38;7.78;;;18.50;99.90;;;;;;5033457;28;20064;-81
2023/08/18 04:42:18;;;;;;;9.15;8.25;;;18.20;99.90;;;;;;5034092;28;20033;-81
2023/08/18 04:44:44;;;;;;;8.35;7.65;;;18.10;99.90;;;;;;5033558;28;20054;-81
2023/08/18 04:47:09;;;;;;;8.50;7.80;;;18.10;99.90;;;;;;5033346;28;20033;-81
2023/08/18 04:49:35;;;;;;;8.55;7.85;;;18.00;99.90;;;;;;5033907;28;20473;-81
2023/08/18 04:52:00;;;;;;;8.23;7.53;;;18.10;99.90;;;;;;5052629;28;20013;-81
2023/08/18 04:54:26;;;;;;;10.15;9.27;;;18.10;99.90;;;;;;5033774;28;20459;-81
2023/08/18 04:57:02;;;;;;;13.68;8.68;;;18.10;99.90;;;;;;5033520;28;20025;-81
2023/08/18 04:59:27;;;;;;;10.43;8.57;;;18.10;99.90;;;;;;5033258;28;20112;-81
2023/08/18 05:01:53;;;;;;;9.82;8.93;;;18.10;99.90;;;;;;5033657;28;20096;-81
2023/08/18 05:04:19;;;;;;;9.93;7.88;;;18.10;99.90;;;;;;5033671;28;20079;-81
2023/08/18 05:06:44;;;;;;;9.45;8.48;;;18.10;99.90;;;;;;5032563;28;20029;-81
2023/08/18 05:09:10;;;;;;;8.30;7.50;;;18.30;99.90;;;;;;5032715;28;20437;-81
2023/08/18 05:11:35;;;;;;;10.57;8.98;;;18.10;99.90;;;;;;5033179;28;20022;-81
2023/08/18 05:14:01;;;;;;;9.55;8.77;;;18.20;99.90;;;;;;5033043;28;20480;-82
2023/08/18 05:16:27;;;;;;;10.38;8.50;;;18.20;99.90;;;;;;5033280;28;20024;-81
2023/08/18 05:18:52;;;;;;;9.65;8.65;;;18.60;99.90;;;;;;5033092;28;20095;-81
2023/08/18 05:21:18;;;;;;;12.45;9.25;;;18.10;99.90;;;;;;5032496;28;20060;-81
2023/08/18 05:23:43;;;;;;;9.85;8.95;;;18.20;99.90;;;;;;5032850;28;20100;-81
2023/08/18 05:26:09;;;;;;;8.98;7.85;;;18.20;99.90;;;;;;5033116;28;20025;-82
2023/08/18 05:28:35;;;;;;;9.63;8.63;;;18.10;99.90;;;;;;5032042;28;20033;-81
2023/08/18 05:31:01;;;;;;;9.85;8.95;;;18.10;99.90;;;;;;5032985;28;20049;-81
2023/08/18 05:33:26;;;;;;;9.88;9.07;;;18.10;99.90;;;;;;5033152;28;20033;-82
2023/08/18 05:35:52;;;;;;;12.27;9.48;;;18.10;99.90;;;;;;5031971;28;20025;-81
2023/08/18 05:38:17;;;;;;;10.77;9.85;;;18.90;99.90;;;;;;5033007;28;20029;-82
2023/08/18 05:40:49;;;;;;;11.40;10.40;;;18.10;99.90;;;;;;5032542;28;20116;-82
2023/08/18 05:43:16;;;;;;;11.52;10.18;;;18.10;99.90;;;;;;5032233;28;20112;-82
2023/08/18 05:45:46;;;;;;;11.55;10.50;;;18.50;99.90;;;;;;5032669;28;20086;-81
2023/08/18 05:48:13;;;;;;;11.98;10.77;;;18.10;99.90;;;;;;5032748;28;20041;-81
2023/08/18 05:50:39;;;;;;;12.45;11.25;;;18.10;99.90;;;;;;5032007;28;20101;-81
2023/08/18 05:53:05;;;;;;;13.38;11.52;;;18.50;99.90;;;;;;5032707;28;20520;-81
2023/08/18 05:55:31;;;;;;;15.45;11.63;;;18.10;99.90;;;;;;5032246;28;20037;-81
2023/08/18 05:58:00;;;;;;;12.55;11.38;;;18.00;99.90;;;;;;5032632;28;20104;-81
2023/08/18 06:00:26;;;;;;;12.93;11.43;;;18.10;99.90;;;;;;5032931;28;20033;-82
2023/08/18 06:02:53;;;;;;;11.07;10.15;;;18.10;99.90;;;;;;5031313;28;20485;-81
2023/08/18 06:05:18;;;;;;;13.63;12.43;;;18.10;99.90;;;;;;5032451;28;20465;-81
2023/08/18 06:07:44;;;;;;;12.45;11.25;;;18.10;99.90;;;;;;5032007;28;20025;-81
2023/08/18 06:10:11;;;;;;;12.90;11.45;;;18.40;99.90;;;;;;5031828;28;20381;-81
2023/08/18 06:12:37;;;;;;;13.32;11.85;;;18.20;99.90;;;;;;5032024;28;20420;-81
2023/08/18 06:15:04;;;;;;;14.27;12.85;;;18.20;99.90;;;;;;5032054;28;20032;-81
2023/08/18 06:17:29;;;;;;;18.58;13.57;;;18.20;99.90;;;;;;5031287;28;20072;-81
2023/08/18 06:19:55;;;;;;;13.38;12.02;;;18.20;99.90;;;;;;5031423;28;20033;-81
2023/08/18 06:22:21;;;;;;;14.52;13.30;;;18.10;99.90;;;;;;5031916;28;20026;-81
2023/08/18 06:24:46;;;;;;;13.80;12.48;;;18.10;99.90;;;;;;5031128;28;20033;-81
2023/08/18 06:27:12;;;;;;;15.05;13.65;;;18.20;99.90;;;;;;5032169;28;20025;-81
2023/08/18 06:29:38;;;;;;;14.35;13.02;;;18.10;99.90;;;;;;5031751;28;20460;-81
2023/08/18 06:32:04;;;;;;;18.02;13.35;;;18.20;99.90;;;;;;5031436;28;20022;-81
2023/08/18 06:34:30;;;;;;;15.27;13.55;;;18.20;99.90;;;;;;5031905;28;20427;-81
2023/08/18 06:36:55;;;;;;;15.27;13.50;;;18.20;99.90;;;;;;5031959;28;20104;-81
2023/08/18 06:39:21;;;;;;;15.25;13.48;;;18.30;99.90;;;;;;5031576;28;20021;-81
2023/08/18 06:41:47;;;;;;;13.60;12.25;;;18.30;99.90;;;;;;5031845;28;20076;-82
2023/08/18 06:44:12;;;;;;;15.40;12.50;;;18.30;99.90;;;;;;5032013;28;20033;-81
2023/08/18 06:46:38;;;;;;;15.75;14.00;;;18.30;99.90;;;;;;5030845;28;20380;-81
2023/08/18 06:49:04;;;;;;;18.52;13.18;;;18.40;99.90;;;;;;5031866;28;20179;-82
2023/08/18 06:51:29;;;;;;;15.15;13.68;;;18.40;99.90;;;;;;5031543;28;20041;-81
2023/08/18 06:53:55;;;;;;;15.98;13.90;;;18.40;99.90;;;;;;5030916;28;20075;-81
2023/08/18 06:56:21;;;;;;;15.63;13.25;;;18.50;99.90;;;;;;5031963;28;20148;-82
2023/08/18 06:58:47;;;;;;;15.00;13.40;;;18.80;99.90;;;;;;5031145;28;20418;-81
2023/08/18 07:01:12;;;;;;;15.80;14.20;;;18.40;99.90;;;;;;5031571;28;20025;-81
2023/08/18 07:03:38;;;;;;;18.15;15.15;;;18.50;99.90;;;;;;5031634;28;20057;-82
2023/08/18 07:06:04;;;;;;;17.95;14.25;;;18.50;99.90;;;;;;5030937;28;20025;-82
2023/08/18 07:08:30;;;;;;;17.33;14.38;;;18.50;99.90;;;;;;5031266;28;21146;-81
2023/08/18 07:10:56;;;;;;;16.40;14.20;;;18.60;99.90;;;;;;5031617;28;20071;-81
2023/08/18 07:13:21;;;;;;;15.50;13.35;;;18.90;99.90;;;;;;5030920;28;20385;-82
2023/08/18 07:15:50;;;;;;;16.38;13.85;;;18.60;99.90;;;;;;5031151;28;20033;-82
2023/08/18 07:18:19;;;;;;;15.38;13.85;;;18.60;99.90;;;;;;5031533;28;20053;-82
2023/08/18 07:20:45;;;;;;;15.65;14.05;;;18.60;99.90;;;;;;5030462;28;20017;-82
2023/08/18 07:23:11;;;;;;;17.30;14.23;;;18.60;99.90;;;;;;5031546;28;20029;-82
2023/08/18 07:25:39;;;;;;;18.60;14.55;;;18.60;99.90;;;;;;5031408;28;20113;-81
2023/08/18 07:28:05;;;;;;;19.00;15.85;;;18.60;99.90;;;;;;5030609;28;20485;-82
2023/08/18 07:30:31;;;;;;;19.92;15.38;;;18.60;99.90;;;;;;5031073;28;20049;-81
2023/08/18 07:32:56;;;;;;;15.27;13.55;;;18.70;99.90;;;;;;5034365;28;20091;-82
2023/08/18 07:35:25;;;;;;;17.00;15.25;;;18.80;99.90;;;;;;5034563;28;20108;-82
2023/08/18 07:37:53;;;;;;;16.42;14.50;;;19.00;99.90;;;;;;5035151;28;20061;-81
2023/08/18 07:40:19;;;;;;;18.42;15.55;;;18.80;99.90;;;;;;5035307;28;20063;-82
2023/08/18 07:42:44;;;;;;;16.65;14.73;;;18.80;99.90;;;;;;5034234;28;20109;-81
2023/08/18 07:45:10;;;;;;;16.02;14.27;;;18.80;99.90;;;;;;5035123;28;20030;-82
2023/08/18 07:47:43;;;;;;;17.73;15.85;;;18.80;99.90;;;;;;5034801;28;20106;-81
2023/08/18 07:50:10;;;;;;;24.10;16.67;;;18.90;99.90;;;;;;5034709;28;20144;-81
2023/08/18 07:52:36;;;;;;;22.30;16.65;;;19.00;99.90;;;;;;5035232;28;20026;-81
2023/08/18 07:55:07;;;;;;;20.88;17.10;;;18.90;99.90;;;;;;5035182;28;20044;-82
2023/08/18 07:57:33;;;;;;;23.02;17.60;;;18.90;99.90;;;;;;5035051;28;20104;-82
2023/08/18 08:00:03;;;;;;;24.20;17.80;;;18.90;99.90;;;;;;5034473;28;20021;-81
2023/08/18 08:02:28;;;;;;;23.60;17.80;;;18.90;99.90;;;;;;5034176;28;20505;-81
2023/08/18 08:04:54;;;;;;;25.90;18.05;;;18.90;99.90;;;;;;5034867;28;20061;-81
2023/08/18 08:07:21;;;;;;;25.52;17.95;;;18.80;99.90;;;;;;5035020;28;20028;-81
2023/08/18 08:09:46;;;;;;;20.52;17.35;;;18.90;99.90;;;;;;5033834;28;20163;-81
2023/08/18 08:12:12;;;;;;;20.85;18.65;;;18.90;99.90;;;;;;5034709;28;20483;-81
2023/08/18 08:14:38;;;;;;;21.90;17.67;;;18.90;99.90;;;;;;5034292;28;20025;-81
2023/08/18 08:17:04;;;;;;;26.35;18.90;;;19.00;99.90;;;;;;5033660;28;20115;-81
2023/08/18 08:19:29;;;;;;;21.10;16.85;;;19.00;99.90;;;;;;5034616;28;20477;-81
2023/08/18 08:21:56;;;;;;;26.13;18.08;;;19.80;99.90;;;;;;5034314;28;20036;-81
2023/08/18 08:24:21;;;;;;;22.73;17.63;;;19.10;99.90;;;;;;5033919;28;20026;-82
2023/08/18 08:26:47;;;;;;;24.35;19.13;;;19.60;99.90;;;;;;5034216;28;20032;-81
2023/08/18 08:29:12;;;;;;;23.55;18.90;;;19.10;99.90;;;;;;5034162;28;20029;-82
2023/08/18 08:31:38;;;;;;;23.50;17.48;;;19.10;99.90;;;;;;5032979;28;20053;-81
2023/08/18 08:34:04;;;;;;;25.95;18.92;;;19.20;99.90;;;;;;5034177;28;20052;-82
2023/08/18 08:36:32;;;;;;;24.83;18.15;;;19.20;99.90;;;;;;5034011;28;20036;-82
2023/08/18 08:38:59;;;;;;;24.58;17.45;;;19.30;99.90;;;;;;5033589;28;20056;-81
2023/08/18 08:41:26;;;;;;;22.83;18.20;;;19.30;99.90;;;;;;5034241;28;20030;-82
2023/08/18 08:43:51;;;;;;;21.88;18.20;;;19.40;99.90;;;;;;5032596;28;20037;-82
2023/08/18 08:46:17;;;;;;;23.92;18.73;;;19.40;99.90;;;;;;5033249;28;20121;-81
2023/08/18 08:48:46;;;;;;;26.02;18.90;;;19.40;99.90;;;;;;5033705;28;20140;-82
2023/08/18 08:51:15;;;;;;;27.00;19.10;;;19.50;99.90;;;;;;5033965;28;20026;-82
2023/08/18 08:53:45;;;;;;;26.80;19.52;;;19.50;99.90;;;;;;5032985;28;20037;-82
2023/08/18 08:56:13;;;;;;;31.25;19.85;;;19.50;99.90;;;;;;5033807;28;20025;-82
2023/08/18 08:58:39;;;;;;;21.50;18.83;;;19.50;99.90;;;;;;5032615;28;20452;-82
2023/08/18 09:01:06;;;;;;;29.23;19.55;;;19.60;99.90;;;;;;5033826;28;20033;-82
2023/08/18 09:03:33;;;;;;;25.60;19.13;;;19.70;99.90;;;;;;5033693;28;20104;-81
2023/08/18 09:05:59;;;;;;;25.88;18.75;;;19.60;99.90;;;;;;5032892;28;20104;-82
2023/08/18 09:08:24;;;;;;;22.15;18.95;;;19.60;99.90;;;;;;5033595;28;20124;-81
2023/08/18 09:10:50;;;;;;;22.05;18.35;;;19.60;99.90;;;;;;5033123;28;20052;-81
2023/08/18 09:13:16;;;;;;;26.30;20.30;;;19.50;99.90;;;;;;5032679;28;20033;-82
2023/08/18 09:15:44;;;;;;;31.08;19.67;;;19.70;99.90;;;;;;5033139;28;20022;-82
2023/08/18 09:18:11;;;;;;;28.10;18.58;;;19.70;99.90;;;;;;5033359;28;20041;-81
2023/08/18 09:20:37;;;;;;;29.20;20.02;;;20.10;99.90;;;;;;5033051;28;20026;-81
2023/08/18 09:23:03;;;;;;;28.95;19.25;;;19.80;99.90;;;;;;5033382;28;20500;-81
2023/08/18 09:25:33;;;;;;;33.88;19.85;;;19.80;99.90;;;;;;5032927;28;20021;-81
2023/08/18 09:27:58;;;;;;;38.38;20.90;;;19.80;99.90;;;;;;5032508;28;20473;-81
2023/08/18 09:30:24;;;;;;;35.38;20.05;;;19.90;99.90;;;;;;5033298;28;20099;-82
2023/08/18 09:32:50;;;;;;;32.33;19.27;;;19.90;99.90;;;;;;5032787;28;20030;-82
2023/08/18 09:35:20;;;;;;;38.70;19.92;;;20.60;99.90;;;;;;5032612;28;20037;-81
2023/08/18 09:37:57;;;;;;;32.55;20.38;;;20.00;99.90;;;;;;5032721;28;20112;-81
2023/08/18 09:40:23;;;;;;;34.22;20.75;;;20.10;99.90;;;;;;5033025;28;20029;-81
2023/08/18 09:42:48;;;;;;;32.80;19.52;;;20.10;99.90;;;;;;5031895;28;20063;-81
2023/08/18 09:45:14;;;;;;;30.63;19.42;;;20.20;99.90;;;;;;5033297;28;20036;-81
2023/08/18 09:47:44;;;;;;;30.65;18.48;;;20.20;99.90;;;;;;5032280;28;20022;-82
2023/08/18 09:50:10;;;;;;;30.85;19.45;;;20.20;99.90;;;;;;5032784;28;20136;-82
2023/08/18 09:52:38;;;;;;;33.28;19.63;;;20.30;99.90;;;;;;5032425;28;20115;-82
2023/08/18 09:55:11;;;;;;;28.48;19.08;;;20.20;99.90;;;;;;5031758;28;20420;-81
2023/08/18 09:58:03;;;;;;;27.63;18.52;;;20.30;99.90;;;;;;5032386;28;20025;-82
2023/08/18 10:00:30;;;;;;;29.05;19.88;;;20.40;99.90;;;;;;5032490;28;20048;-81
2023/08/18 10:03:00;;;;;;;23.80;17.00;;;20.50;99.90;;;;;;5031817;28;20025;-81
2023/08/18 10:05:27;;;;;;;23.58;17.55;;;20.50;99.90;;;;;;5032911;28;20116;-81
2023/08/18 10:07:53;;;;;;;21.42;17.80;;;20.60;99.90;;;;;;5032066;28;20100;-81
2023/08/18 10:10:21;;;;;;;24.50;17.73;;;20.70;99.90;;;;;;5031384;28;20151;-83
2023/08/18 10:12:47;;;;;;;19.65;16.17;;;20.70;99.90;;;;;;5032038;28;20044;-82
2023/08/18 10:15:14;;;;;;;22.25;16.73;;;20.70;99.90;;;;;;5032337;28;20112;-82
2023/08/18 10:17:40;;;;;;;20.83;16.23;;;20.80;99.90;;;;;;5031183;28;20026;-81
2023/08/18 10:20:12;;;;;;;24.27;16.83;;;20.80;99.90;;;;;;5032430;28;20029;-81
2023/08/18 10:22:38;;;;;;;21.48;16.67;;;20.90;99.90;;;;;;5032020;28;20124;-80
2023/08/18 10:25:06;;;;;;;22.75;17.45;;;20.90;99.90;;;;;;5031345;28;20522;-81
2023/08/18 10:27:35;;;;;;;20.77;16.92;;;21.00;99.90;;;;;;5032082;28;20112;-82
2023/08/18 10:30:02;;;;;;;21.70;17.48;;;21.00;99.90;;;;;;5031078;28;20136;-82
2023/08/18 10:32:31;;;;;;;21.50;16.98;;;21.10;99.90;;;;;;5032215;28;20032;-82
2023/08/18 10:35:19;;;;;;;25.65;19.23;;;21.10;99.90;;;;;;5032093;28;20025;-82
2023/08/18 10:37:48;;;;;;;22.33;17.40;;;21.10;99.90;;;;;;5031042;28;20052;-82
2023/08/18 10:40:23;;;;;;;23.13;18.20;;;21.20;99.90;;;;;;5031774;28;20523;-82
2023/08/18 10:42:51;;;;;;;25.08;16.98;;;21.20;99.90;;;;;;5031584;28;20033;-82
2023/08/18 10:45:28;;;;;;;23.30;16.65;;;21.20;99.90;;;;;;5031425;28;20416;-82
2023/08/18 10:47:57;;;;;;;22.30;16.92;;;21.30;99.90;;;;;;5031692;28;20479;-82
2023/08/18 10:50:24;;;;;;;23.65;18.15;;;21.20;99.90;;;;;;5031834;28;20039;-82
2023/08/18 10:52:55;;;;;;;27.10;18.52;;;21.30;99.90;;;;;;5031000;28;20021;-82
2023/08/18 10:55:24;;;;;;;22.98;17.25;;;21.30;99.90;;;;;;5031772;28;20038;-82
2023/08/18 10:57:50;;;;;;;20.58;16.67;;;21.30;99.90;;;;;;5031487;28;20029;-82
2023/08/18 11:00:18;;;;;;;21.63;18.95;;;21.30;99.90;;;;;;5031367;28;20091;-83
2023/08/18 11:02:44;;;;;;;22.98;18.45;;;21.40;99.90;;;;;;5032991;28;20071;-80
2023/08/18 11:05:10;;;;;;;23.92;17.25;;;21.60;99.90;;;;;;5031115;28;20035;-82
2023/08/18 11:07:36;;;;;;;22.98;18.90;;;21.80;99.90;;;;;;5036445;28;20045;-82
2023/08/18 11:10:22;;;;;;;22.75;19.02;;;21.40;99.90;;;;;;5038050;28;20072;-82
2023/08/18 11:12:50;;;;;;;21.20;17.30;;;21.40;99.90;;;;;;5037114;28;20469;-82
2023/08/18 11:15:18;;;;;;;31.13;20.40;;;21.40;99.90;;;;;;5038431;28;20095;-82
2023/08/18 11:17:44;;;;;;;22.73;16.88;;;21.40;99.90;;;;;;5037821;28;20030;-82
2023/08/18 11:20:13;;;;;;;25.42;18.67;;;21.50;99.90;;;;;;5037304;28;20025;-81
2023/08/18 11:22:44;;;;;;;24.85;18.98;;;21.50;99.90;;;;;;5038355;28;20033;-81
2023/08/18 11:25:14;;;;;;;21.98;17.77;;;21.50;99.90;;;;;;5038255;28;20029;-82
2023/08/18 11:27:41;;;;;;;25.25;19.25;;;21.60;99.90;;;;;;5036904;28;20500;-81
2023/08/18 11:30:14;;;;;;;20.27;17.38;;;21.50;99.90;;;;;;5037631;28;20045;-82
2023/08/18 11:32:40;;;;;;;21.30;18.58;;;21.50;99.90;;;;;;5037716;28;20025;-81
2023/08/18 11:35:08;;;;;;;20.55;18.10;;;21.60;99.90;;;;;;5037462;28;20033;-82
2023/08/18 11:37:42;;;;;;;22.05;18.55;;;21.60;99.90;;;;;;5037644;28;20481;-81
2023/08/18 11:40:10;;;;;;;20.52;18.25;;;21.60;99.90;;;;;;5037713;28;20104;-81
2023/08/18 11:42:41;;;;;;;22.15;18.85;;;21.70;99.90;;;;;;5037787;28;20036;-82
2023/08/18 11:45:19;;;;;;;22.23;18.10;;;21.60;99.90;;;;;;5038147;28;20025;-82
2023/08/18 11:47:48;;;;;;;22.10;19.75;;;21.70;99.90;;;;;;5037108;28;20117;-82
2023/08/18 11:50:19;;;;;;;21.45;18.23;;;21.70;99.90;;;;;;5038469;28;20029;-81
2023/08/18 11:52:46;;;;;;;22.55;18.70;;;21.70;99.90;;;;;;5037575;28;20108;-82
2023/08/18 11:55:13;;;;;;;24.88;19.35;;;21.80;99.90;;;;;;5037056;28;20029;-82
2023/08/18 11:57:41;;;;;;;25.77;20.33;;;21.80;99.90;;;;;;5037350;28;20028;-82
2023/08/18 12:00:13;;;;;;;24.42;19.42;;;21.80;99.90;;;;;;5037735;28;20026;-82
2023/08/18 12:02:46;;;;;;;23.20;19.90;;;21.80;99.90;;;;;;5037043;28;20040;-82
2023/08/18 12:05:22;;;;;;;22.48;20.08;;;21.90;99.90;;;;;;5037766;28;20029;-82
2023/08/18 12:07:51;;;;;;;23.65;20.85;;;21.90;99.90;;;;;;5037483;28;20388;-82
2023/08/18 12:10:16;;;;;;;22.52;20.05;;;22.00;99.90;;;;;;5036959;28;20029;-82
2023/08/18 12:12:42;;;;;;;24.98;17.35;;;22.10;99.90;;;;;;5037570;28;20381;-82
2023/08/18 12:15:08;;;;;;;26.13;20.95;;;22.10;99.90;;;;;;5037518;28;20018;-82
2023/08/18 12:17:34;;;;;;;22.48;18.17;;;22.20;99.90;;;;;;5036172;28;20120;-82
2023/08/18 12:19:59;;;;;;;22.63;20.05;;;22.20;99.90;;;;;;5034330;28;20032;-82
2023/08/18 12:22:25;;;;;;;22.83;19.25;;;22.30;99.90;;;;;;5033915;28;20034;-82
2023/08/18 12:24:50;;;;;;;23.02;20.67;;;22.30;99.90;;;;;;5033907;28;20465;-82
2023/08/18 12:27:16;;;;;;;22.80;20.45;;;22.30;99.90;;;;;;5034434;28;20022;-82
2023/08/18 12:29:41;;;;;;;24.08;20.77;;;22.40;99.90;;;;;;5033237;28;20384;-82
2023/08/18 12:32:07;;;;;;;28.95;21.98;;;22.50;99.90;;;;;;5034917;28;20517;-82